sim
Sign-in with your pilot id or email,
or register
Callsign
Passwort

Schedule Details

Flight Number: OEO3133
Departure: Liverpool John Lennon Airport (EGGP) at 07:05
Arrival: Munich Airport (EDDM) at 09:05

Weather Information
Getting current METAR information for EGGP 222050Z 20008KT 9999 FEW020 SCT028 16/13 Q1002
Getting current METAR information for EDDM 222050Z 27004KT CAVOK 15/14 Q1010 NOSIG

Schedule Frequency

Route Map